createdAt,value
2019-04-28T00:01:59.122Z,5.89
2019-04-28T00:04:28.727Z,5.89
2019-04-28T00:06:58.341Z,5.96
2019-04-28T00:09:28.168Z,6.04
2019-04-28T00:11:57.784Z,5.88
2019-04-28T00:14:27.430Z,5.90
2019-04-28T00:16:57.461Z,5.78
2019-04-28T00:19:28.345Z,5.74
2019-04-28T00:22:15.749Z,5.54
2019-04-28T00:24:51.524Z,5.46
2019-04-28T00:27:21.810Z,5.35
2019-04-28T00:29:51.998Z,5.17
2019-04-28T00:32:22.080Z,5.12
2019-04-28T00:34:52.937Z,5.12
2019-04-28T00:37:24.288Z,5.08
2019-04-28T00:39:54.308Z,5.03
2019-04-28T00:42:24.005Z,5.02
2019-04-28T00:44:53.786Z,5.02
2019-04-28T00:47:24.173Z,5.10
2019-04-28T00:49:53.887Z,5.06
2019-04-28T00:52:23.518Z,5.06
2019-04-28T00:54:53.163Z,5.12
2019-04-28T00:57:22.825Z,5.16
2019-04-28T00:59:58.268Z,5.17
2019-04-28T01:02:25.428Z,5.20
2019-04-28T01:04:55.152Z,5.24
2019-04-28T01:07:24.769Z,5.24
2019-04-28T01:09:54.489Z,5.33
2019-04-28T01:12:24.108Z,5.37
2019-04-28T01:14:55.535Z,5.38
2019-04-28T01:17:35.643Z,5.41
2019-04-28T01:20:09.794Z,5.43
2019-04-28T01:22:40.228Z,5.45
2019-04-28T01:25:10.643Z,5.55
2019-04-28T01:27:42.222Z,5.52
2019-04-28T01:30:14.255Z,5.56
2019-04-28T01:32:45.548Z,5.58
2019-04-28T01:35:15.169Z,5.66
2019-04-28T01:37:44.821Z,5.66
2019-04-28T01:40:14.513Z,5.67
2019-04-28T01:42:44.230Z,5.66
2019-04-28T01:45:13.922Z,5.68
2019-04-28T01:47:43.607Z,5.70
2019-04-28T01:50:13.270Z,5.72
2019-04-28T01:52:42.876Z,5.69
2019-04-28T01:55:12.536Z,5.71
2019-04-28T01:57:43.221Z,5.73
2019-04-28T02:00:22.917Z,5.69
2019-04-28T02:02:45.904Z,5.68
2019-04-28T02:05:15.553Z,5.62
2019-04-28T02:07:45.172Z,5.66
2019-04-28T02:10:14.826Z,5.58
2019-04-28T02:12:44.454Z,5.67
2019-04-28T02:15:14.067Z,5.65
2019-04-28T02:17:43.716Z,5.67
2019-04-28T02:20:13.402Z,5.71
2019-04-28T02:22:44.698Z,5.60
2019-04-28T02:25:14.312Z,5.62
2019-04-28T02:27:43.972Z,5.58
2019-04-28T02:30:13.666Z,5.58
2019-04-28T02:32:43.315Z,5.54
2019-04-28T02:35:13.163Z,5.50
2019-04-28T02:37:42.815Z,5.52
2019-04-28T02:40:12.431Z,5.45
2019-04-28T02:42:42.080Z,5.39
2019-04-28T02:45:12.030Z,5.40
2019-04-28T02:47:42.417Z,5.43
2019-04-28T02:50:21.121Z,5.35
2019-04-28T02:52:55.336Z,5.26
2019-04-28T02:55:24.189Z,5.32
2019-04-28T02:57:53.463Z,5.28
2019-04-28T03:00:23.154Z,5.29
2019-04-28T03:02:52.805Z,5.30
2019-04-28T03:05:22.422Z,5.28
2019-04-28T03:07:52.071Z,5.26
2019-04-28T03:10:21.825Z,5.23
2019-04-28T03:12:52.089Z,5.17
2019-04-28T03:15:21.973Z,5.21
2019-04-28T03:17:53.217Z,5.26
2019-04-28T03:20:22.939Z,5.19
2019-04-28T03:22:53.569Z,5.17
2019-04-28T03:25:24.822Z,5.13
2019-04-28T03:31:03.227Z,5.02
2019-04-28T03:33:34.065Z,5.05
2019-04-28T03:36:07.880Z,5.04
2019-04-28T03:38:33.994Z,4.98
2019-04-28T03:41:03.720Z,5.00
2019-04-28T03:43:33.336Z,4.94
2019-04-28T03:46:04.692Z,4.98
2019-04-28T03:48:34.317Z,4.97
2019-04-28T03:51:04.715Z,4.94
2019-04-28T03:53:34.329Z,4.87
2019-04-28T03:56:03.987Z,4.81
2019-04-28T03:58:33.585Z,4.81
2019-04-28T04:01:04.504Z,4.73
2019-04-28T04:03:34.118Z,4.79
2019-04-28T04:06:03.770Z,4.72
2019-04-28T04:08:33.384Z,4.60
2019-04-28T04:11:13.849Z,4.59
2019-04-28T04:13:45.109Z,4.49
2019-04-28T04:16:20.753Z,4.50
2019-04-28T04:18:53.798Z,4.58
2019-04-28T04:21:23.378Z,4.53
2019-04-28T04:23:53.057Z,4.55
2019-04-28T04:26:22.701Z,4.58
2019-04-28T04:28:52.318Z,4.52
2019-04-28T04:31:22.043Z,4.52
2019-04-28T04:33:52.929Z,4.63
2019-04-28T04:36:22.573Z,4.63
2019-04-28T04:38:52.545Z,4.65
2019-04-28T04:41:22.481Z,4.68
2019-04-28T04:43:52.133Z,4.66
2019-04-28T04:46:23.399Z,4.66
2019-04-28T04:48:53.363Z,4.73
2019-04-28T04:51:23.029Z,4.69
2019-04-28T04:53:52.676Z,4.69
2019-04-28T04:56:22.295Z,4.76
2019-04-28T04:58:51.972Z,4.72
2019-04-28T05:01:40.785Z,4.72
2019-04-28T05:04:13.545Z,4.74
2019-04-28T05:06:43.223Z,4.81
2019-04-28T05:09:12.945Z,4.92
2019-04-28T05:11:42.561Z,4.95
2019-04-28T05:14:12.278Z,5.05
2019-04-28T05:16:41.977Z,5.15
2019-04-28T05:19:11.635Z,5.30
2019-04-28T05:21:42.620Z,5.38
2019-04-28T05:24:25.870Z,5.58
2019-04-28T05:26:55.488Z,5.70
2019-04-28T05:29:26.788Z,5.77
2019-04-28T05:31:59.880Z,5.82
2019-04-28T05:34:29.512Z,5.86
2019-04-28T05:37:00.701Z,5.84
2019-04-28T05:39:30.714Z,5.78
2019-04-28T05:42:00.969Z,5.80
2019-04-28T05:44:32.140Z,5.86
2019-04-28T05:47:02.517Z,5.93
2019-04-28T05:49:33.868Z,6.04
2019-04-28T05:52:21.171Z,6.20
2019-04-28T05:54:52.469Z,6.31
2019-04-28T05:57:23.746Z,6.58
2019-04-28T05:59:55.007Z,6.85
2019-04-28T06:02:55.922Z,7.07
2019-04-28T06:05:12.673Z,7.21
2019-04-28T06:07:43.963Z,7.23
2019-04-28T06:10:13.582Z,7.45
2019-04-28T06:12:43.229Z,7.44
2019-04-28T06:15:12.848Z,7.42
2019-04-28T06:17:42.472Z,7.56
2019-04-28T06:20:12.125Z,7.63
2019-04-28T06:22:41.816Z,7.78
2019-04-28T06:25:11.457Z,7.90
2019-04-28T06:27:41.065Z,7.88
2019-04-28T06:30:13.692Z,7.92
2019-04-28T06:32:43.307Z,8.05
2019-04-28T06:35:12.958Z,8.03
2019-04-28T06:37:42.574Z,8.21
2019-04-28T06:40:12.299Z,8.25
2019-04-28T06:42:41.918Z,8.18
2019-04-28T06:45:11.570Z,7.97
2019-04-28T06:47:41.253Z,8.13
2019-04-28T06:50:10.965Z,7.93
2019-04-28T06:52:40.580Z,8.15
2019-04-28T06:55:10.241Z,8.38
2019-04-28T06:57:41.128Z,8.55
2019-04-28T07:00:10.847Z,8.34
2019-04-28T07:02:40.528Z,8.31
2019-04-28T07:05:10.253Z,8.28
2019-04-28T07:07:39.874Z,8.29
2019-04-28T07:10:10.094Z,8.25
2019-04-28T07:12:39.784Z,8.29
2019-04-28T07:15:09.436Z,8.16
2019-04-28T07:17:39.111Z,8.24
2019-04-28T07:20:26.940Z,8.14
2019-04-28T07:22:56.690Z,8.19
2019-04-28T07:25:26.345Z,8.34
2019-04-28T07:27:55.950Z,8.54
2019-04-28T07:30:25.677Z,8.29
2019-04-28T07:32:55.365Z,8.19
2019-04-28T07:35:25.011Z,8.34
2019-04-28T07:37:54.731Z,8.43
2019-04-28T07:40:24.419Z,8.68
2019-04-28T07:42:54.072Z,8.99
2019-04-28T07:45:23.692Z,8.94
2019-04-28T07:47:53.349Z,8.92
2019-04-28T07:50:23.040Z,8.98
2019-04-28T07:52:57.070Z,8.81
2019-04-28T07:55:26.688Z,8.96
2019-04-28T07:57:56.380Z,9.21
2019-04-28T08:00:27.674Z,9.56
2019-04-28T08:02:57.315Z,9.57
2019-04-28T08:05:27.015Z,9.87
2019-04-28T08:07:56.638Z,9.66
2019-04-28T08:10:26.296Z,9.41
2019-04-28T08:12:55.980Z,9.11
2019-04-28T08:15:25.629Z,8.69
2019-04-28T08:17:55.262Z,8.60
2019-04-28T08:20:24.907Z,8.67
2019-04-28T08:22:54.521Z,8.85
2019-04-28T08:25:24.173Z,8.75
2019-04-28T08:27:53.871Z,8.85
2019-04-28T08:30:23.520Z,9.28
2019-04-28T08:32:54.786Z,9.43
2019-04-28T08:35:24.431Z,9.57
2019-04-28T08:37:54.037Z,9.69
2019-04-28T08:40:23.819Z,9.70
2019-04-28T08:42:53.444Z,10.05
2019-04-28T08:45:24.165Z,10.34
2019-04-28T08:47:53.853Z,10.69
2019-04-28T08:50:23.502Z,10.30
2019-04-28T08:52:53.131Z,9.73
2019-04-28T08:55:22.788Z,9.40
2019-04-28T08:57:52.472Z,9.00
2019-04-28T09:00:22.188Z,9.02
2019-04-28T09:02:51.871Z,8.88
2019-04-28T09:05:21.518Z,8.79
2019-04-28T09:07:51.136Z,9.00
2019-04-28T09:10:20.793Z,9.03
2019-04-28T09:12:50.445Z,9.16
2019-04-28T09:15:20.063Z,9.39
2019-04-28T09:17:49.776Z,9.35
2019-04-28T09:20:19.401Z,9.52
2019-04-28T09:22:50.440Z,9.77
2019-04-28T09:25:20.111Z,9.89
2019-04-28T09:27:49.761Z,9.97
2019-04-28T09:30:19.382Z,10.05
2019-04-28T09:32:49.010Z,9.83
2019-04-28T09:35:18.660Z,9.82
2019-04-28T09:37:48.279Z,9.59
2019-04-28T09:40:18.503Z,9.73
2019-04-28T09:43:04.970Z,9.73
2019-04-28T09:45:51.544Z,9.87
2019-04-28T09:48:21.298Z,9.77
2019-04-28T09:50:51.518Z,10.08
2019-04-28T09:53:21.138Z,10.50
2019-04-28T09:55:50.880Z,10.61
2019-04-28T09:58:20.520Z,10.39
2019-04-28T10:00:50.153Z,10.13
2019-04-28T10:03:19.813Z,10.18
2019-04-28T10:05:49.434Z,9.98
2019-04-28T10:08:19.081Z,9.97
2019-04-28T10:10:48.788Z,10.08
2019-04-28T10:13:18.439Z,10.56
2019-04-28T10:15:48.583Z,11.02
2019-04-28T10:18:18.338Z,11.40
2019-04-28T10:20:48.868Z,11.78
2019-04-28T10:23:19.001Z,11.95
2019-04-28T10:25:49.279Z,11.75
2019-04-28T10:28:19.111Z,11.70
2019-04-28T10:30:48.835Z,11.74
2019-04-28T10:33:18.530Z,11.88
2019-04-28T10:35:48.190Z,11.51
2019-04-28T10:38:17.816Z,11.33
2019-04-28T10:40:52.091Z,11.41
2019-04-28T10:43:21.423Z,11.66
2019-04-28T10:45:51.550Z,11.72
2019-04-28T10:48:21.323Z,11.98
2019-04-28T10:50:51.321Z,12.49
2019-04-28T10:53:21.538Z,12.98
2019-04-28T10:55:53.190Z,12.99
2019-04-28T10:58:23.129Z,12.39
2019-04-28T11:00:52.775Z,11.92
2019-04-28T11:03:22.510Z,11.62
2019-04-28T11:05:52.130Z,11.49
2019-04-28T11:08:39.691Z,11.16
2019-04-28T11:11:13.946Z,10.76
2019-04-28T11:13:43.326Z,10.64
2019-04-28T11:16:14.594Z,10.68
2019-04-28T11:18:44.249Z,10.45
2019-04-28T11:21:13.864Z,10.26
2019-04-28T11:23:43.489Z,10.02
2019-04-28T11:26:13.140Z,9.89
2019-04-28T11:28:42.768Z,9.69
2019-04-28T11:31:12.511Z,9.66
2019-04-28T11:33:55.959Z,9.59
2019-04-28T11:36:25.676Z,9.48
2019-04-28T11:38:55.293Z,9.50
2019-04-28T11:41:24.936Z,9.59
2019-04-28T11:43:54.579Z,9.56
2019-04-28T11:46:24.800Z,9.50
2019-04-28T11:48:54.502Z,9.49
2019-04-28T11:51:24.140Z,9.59
2019-04-28T11:53:53.751Z,9.57
2019-04-28T11:56:23.399Z,9.59
2019-04-28T11:58:53.114Z,9.65
2019-04-28T12:01:23.736Z,9.71
2019-04-28T12:03:55.021Z,9.85
2019-04-28T12:06:24.637Z,9.87
2019-04-28T12:08:55.947Z,10.28
2019-04-28T12:11:27.204Z,10.63
2019-04-28T12:13:58.502Z,11.16
2019-04-28T12:16:29.765Z,11.51
2019-04-28T12:19:09.622Z,11.71
2019-04-28T12:21:39.314Z,11.81
2019-04-28T12:24:09.107Z,11.77
2019-04-28T12:26:38.731Z,11.63
2019-04-28T12:29:08.454Z,11.35
2019-04-28T12:31:38.175Z,11.29
2019-04-28T12:34:09.298Z,11.29
2019-04-28T12:36:38.955Z,11.46
2019-04-28T12:39:09.323Z,11.72
2019-04-28T12:41:39.118Z,11.66
2019-04-28T12:44:08.774Z,11.49
2019-04-28T12:46:38.470Z,11.06
2019-04-28T12:49:12.798Z,10.79
2019-04-28T12:51:42.420Z,10.63
2019-04-28T12:54:13.784Z,10.71
2019-04-28T12:56:43.421Z,10.72
2019-04-28T12:59:19.034Z,10.85
2019-04-28T13:01:58.520Z,10.73
2019-04-28T13:04:32.470Z,10.64
2019-04-28T13:07:03.139Z,10.64
2019-04-28T13:09:34.164Z,10.40
2019-04-28T13:12:04.838Z,10.30
2019-04-28T13:14:34.489Z,10.15
2019-04-28T13:17:04.181Z,10.13
2019-04-28T13:19:33.839Z,10.06
2019-04-28T13:22:05.533Z,9.81
2019-04-28T13:24:34.873Z,9.46
2019-04-28T13:27:04.556Z,9.26
2019-04-28T13:29:34.188Z,9.18
2019-04-28T13:32:03.851Z,9.08
2019-04-28T13:34:35.133Z,9.11
2019-04-28T13:37:04.805Z,9.24
2019-04-28T13:39:36.097Z,9.24
2019-04-28T13:42:06.191Z,9.42
2019-04-28T13:44:49.262Z,9.40
2019-04-28T13:47:19.915Z,9.49
2019-04-28T13:49:51.343Z,9.75
2019-04-28T13:52:20.965Z,9.87
2019-04-28T13:54:52.257Z,9.95
2019-04-28T13:57:21.883Z,10.18
2019-04-28T13:59:53.193Z,10.15
2019-04-28T14:02:33.644Z,10.13
2019-04-28T14:05:05.531Z,10.29
2019-04-28T14:07:35.248Z,10.31
2019-04-28T14:10:07.178Z,10.40
2019-04-28T14:12:36.905Z,10.39
2019-04-28T14:15:06.637Z,10.60
2019-04-28T14:17:36.364Z,10.59
2019-04-28T14:20:07.566Z,10.63
2019-04-28T14:22:37.299Z,10.54
2019-04-28T14:25:07.100Z,10.74
2019-04-28T14:27:37.806Z,10.81
2019-04-28T14:30:08.066Z,10.80
2019-04-28T14:32:37.736Z,11.04
2019-04-28T14:35:07.522Z,11.43
2019-04-28T14:37:37.212Z,11.77
2019-04-28T14:40:08.691Z,11.53
2019-04-28T14:42:38.418Z,11.29
2019-04-28T14:45:08.128Z,11.17
2019-04-28T14:47:37.763Z,10.92
2019-04-28T14:50:07.408Z,10.57
2019-04-28T14:52:37.035Z,10.25
2019-04-28T14:55:07.577Z,10.14
2019-04-28T14:57:37.254Z,10.01
2019-04-28T15:00:08.129Z,9.83
2019-04-28T15:02:51.467Z,9.81
2019-04-28T15:05:28.216Z,9.57
2019-04-28T15:07:59.462Z,9.39
2019-04-28T15:10:39.794Z,9.19
2019-04-28T15:13:09.511Z,9.14
2019-04-28T15:15:39.132Z,9.03
2019-04-28T15:18:09.853Z,9.12
2019-04-28T15:20:39.547Z,9.20
2019-04-28T15:23:09.263Z,9.24
2019-04-28T15:25:38.891Z,9.31
2019-04-28T15:28:08.540Z,9.40
2019-04-28T15:30:38.159Z,9.37
2019-04-28T15:33:07.878Z,9.43
2019-04-28T15:35:37.521Z,9.65
2019-04-28T15:38:09.262Z,9.40
2019-04-28T15:40:38.953Z,9.31
2019-04-28T15:43:08.682Z,9.31
2019-04-28T15:45:38.392Z,9.30
2019-04-28T15:48:08.044Z,9.32
2019-04-28T15:50:37.745Z,9.24
2019-04-28T15:53:07.425Z,9.23
2019-04-28T15:55:54.916Z,9.36
2019-04-28T15:58:32.102Z,9.37
2019-04-28T16:01:01.793Z,9.43
2019-04-28T16:03:31.485Z,9.43
2019-04-28T16:06:01.135Z,9.60
2019-04-28T16:08:30.890Z,9.77
2019-04-28T16:11:00.545Z,9.73
2019-04-28T16:13:30.225Z,9.78
2019-04-28T16:16:01.045Z,9.84
2019-04-28T16:18:30.733Z,9.97
2019-04-28T16:21:00.383Z,9.96
2019-04-28T16:23:30.093Z,9.92
2019-04-28T16:26:01.898Z,9.99
2019-04-28T16:28:31.704Z,10.17
2019-04-28T16:31:01.449Z,10.33
2019-04-28T16:33:31.736Z,10.32
2019-04-28T16:36:01.542Z,10.23
2019-04-28T16:38:31.190Z,10.14
2019-04-28T16:41:01.426Z,10.18
2019-04-28T16:43:31.633Z,9.96
2019-04-28T16:46:01.258Z,9.89
2019-04-28T16:48:30.970Z,9.83
2019-04-28T16:51:00.580Z,9.80
2019-04-28T16:53:30.300Z,9.79
2019-04-28T16:58:57.167Z,9.27
2019-04-28T17:01:44.514Z,9.21
2019-04-28T17:04:14.309Z,9.07
2019-04-28T17:06:43.992Z,8.85
2019-04-28T17:09:14.617Z,8.88
2019-04-28T17:11:44.301Z,8.75
2019-04-28T17:14:14.120Z,8.59
2019-04-28T17:16:43.741Z,8.43
2019-04-28T17:19:13.432Z,8.44
2019-04-28T17:21:43.155Z,8.27
2019-04-28T17:24:12.835Z,8.26
2019-04-28T17:26:42.488Z,8.08
2019-04-28T17:29:12.245Z,7.88
2019-04-28T17:31:41.896Z,7.77
2019-04-28T17:34:11.654Z,7.85
2019-04-28T17:36:41.311Z,7.82
2019-04-28T17:39:12.564Z,7.82
2019-04-28T17:41:43.832Z,7.80
2019-04-28T17:44:13.518Z,7.81
2019-04-28T17:46:43.277Z,7.75
2019-04-28T17:49:12.929Z,7.80
2019-04-28T17:51:42.686Z,7.72
2019-04-28T17:54:12.407Z,7.66
2019-04-28T17:56:42.028Z,7.62
2019-04-28T17:59:11.748Z,7.61
2019-04-28T18:01:43.005Z,7.63
2019-04-28T18:04:29.285Z,7.54
2019-04-28T18:07:06.413Z,7.50
2019-04-28T18:09:36.134Z,7.54
2019-04-28T18:12:05.752Z,7.50
2019-04-28T18:14:36.669Z,7.45
2019-04-28T18:17:20.235Z,7.36
2019-04-28T18:19:49.865Z,7.33
2019-04-28T18:22:19.498Z,7.30
2019-04-28T18:24:49.207Z,7.32
2019-04-28T18:27:18.821Z,7.34
2019-04-28T18:29:49.850Z,7.24
2019-04-28T18:32:40.266Z,7.19
2019-04-28T18:35:26.753Z,7.13
2019-04-28T18:38:00.908Z,7.07
2019-04-28T18:40:33.741Z,6.98
2019-04-28T18:43:10.787Z,6.98
2019-04-28T18:45:40.513Z,6.98
2019-04-28T18:48:10.162Z,6.95
2019-04-28T18:50:39.884Z,6.97
2019-04-28T18:53:09.575Z,6.93
2019-04-28T18:55:39.259Z,6.91
2019-04-28T18:58:08.985Z,6.86
2019-04-28T19:00:40.255Z,6.81
2019-04-28T19:03:09.967Z,6.76
2019-04-28T19:05:41.221Z,6.73
2019-04-28T19:08:21.544Z,6.67
2019-04-28T19:10:52.871Z,6.62
2019-04-28T19:13:24.229Z,6.57
2019-04-28T19:16:10.616Z,6.51
2019-04-28T19:18:51.015Z,6.45
2019-04-28T19:21:20.630Z,6.33
2019-04-28T19:23:50.348Z,6.32
2019-04-28T19:26:20.037Z,6.24
2019-04-28T19:28:49.693Z,6.22
2019-04-28T19:31:19.379Z,6.21
2019-04-28T19:33:50.206Z,6.16
2019-04-28T19:36:19.897Z,6.10
2019-04-28T19:39:02.165Z,6.08
2019-04-28T19:41:20.934Z,6.07
2019-04-28T19:43:50.688Z,6.01
2019-04-28T19:46:20.470Z,6.01
2019-04-28T19:48:51.556Z,5.99
2019-04-28T19:51:31.527Z,5.96
2019-04-28T19:53:52.587Z,5.92
2019-04-28T19:56:38.854Z,5.89
2019-04-28T19:59:22.424Z,5.93
2019-04-28T20:01:52.131Z,5.88
2019-04-28T20:04:21.863Z,5.90
2019-04-28T20:06:51.555Z,5.94
2019-04-28T20:09:21.178Z,5.92
2019-04-28T20:11:50.837Z,5.92
2019-04-28T20:14:20.521Z,5.89
2019-04-28T20:16:50.245Z,5.86
2019-04-28T20:19:19.931Z,5.89
2019-04-28T20:21:49.716Z,5.91
2019-04-28T20:24:19.675Z,5.91
2019-04-28T20:26:51.093Z,5.93
2019-04-28T20:29:23.248Z,6.01
2019-04-28T20:31:52.234Z,5.99
2019-04-28T20:34:21.946Z,6.05
2019-04-28T20:36:53.205Z,6.06
2019-04-28T20:39:24.556Z,6.09
2019-04-28T20:41:54.548Z,6.11
2019-04-28T20:44:24.277Z,6.11
2019-04-28T20:46:53.888Z,6.16
2019-04-28T20:49:23.541Z,6.11
2019-04-28T20:51:53.159Z,6.08
2019-04-28T20:54:22.813Z,6.06
2019-04-28T20:56:52.426Z,6.00
2019-04-28T20:59:22.143Z,5.97
2019-04-28T21:01:51.762Z,5.93
2019-04-28T21:04:21.481Z,5.95
2019-04-28T21:06:51.094Z,5.87
2019-04-28T21:09:20.741Z,5.82
2019-04-28T21:11:50.403Z,5.80
2019-04-28T21:14:20.877Z,5.76
2019-04-28T21:16:50.812Z,5.73
2019-04-28T21:19:20.436Z,5.74
2019-04-28T21:21:50.093Z,5.67
2019-04-28T21:24:19.713Z,5.61
2019-04-28T21:26:49.437Z,5.62
2019-04-28T21:29:19.057Z,5.60
2019-04-28T21:31:48.715Z,5.58
2019-04-28T21:34:18.338Z,5.60
2019-04-28T21:36:48.009Z,5.61
2019-04-28T21:39:18.878Z,5.64
2019-04-28T21:41:48.533Z,5.67
2019-04-28T21:44:25.770Z,5.68
2019-04-28T21:46:59.740Z,5.73
2019-04-28T21:49:30.997Z,5.67
2019-04-28T21:52:00.721Z,5.57
2019-04-28T21:54:30.333Z,5.62
2019-04-28T21:56:59.985Z,5.63
2019-04-28T21:59:29.606Z,5.65
2019-04-28T22:01:59.330Z,5.67
2019-04-28T22:04:29.090Z,5.62
2019-04-28T22:06:58.825Z,5.66
2019-04-28T22:09:28.440Z,5.61
2019-04-28T22:11:58.121Z,5.63
2019-04-28T22:14:27.734Z,5.58
2019-04-28T22:16:57.457Z,5.55
2019-04-28T22:19:27.148Z,5.54
2019-04-28T22:21:56.829Z,5.51
2019-04-28T22:24:28.085Z,5.54
2019-04-28T22:26:57.739Z,5.45
2019-04-28T22:29:27.373Z,5.41
2019-04-28T22:31:57.023Z,5.49
2019-04-28T22:34:26.645Z,5.49
2019-04-28T22:36:56.372Z,5.46
2019-04-28T22:39:25.998Z,5.54
2019-04-28T22:41:55.653Z,5.50
2019-04-28T22:44:25.277Z,5.52
2019-04-28T22:46:54.922Z,5.54
2019-04-28T22:49:24.714Z,5.47
2019-04-28T22:51:54.366Z,5.43
2019-04-28T22:54:28.580Z,5.45
2019-04-28T22:56:59.580Z,5.45
2019-04-28T22:59:33.855Z,5.44
2019-04-28T23:02:04.172Z,5.47
2019-04-28T23:04:38.155Z,5.50
2019-04-28T23:07:06.924Z,5.51
2019-04-28T23:09:36.159Z,5.52
2019-04-28T23:12:05.882Z,5.51
2019-04-28T23:14:35.500Z,5.56
2019-04-28T23:17:06.826Z,5.56
2019-04-28T23:19:38.151Z,5.52
2019-04-28T23:22:12.114Z,5.47
2019-04-28T23:24:41.764Z,5.51
2019-04-28T23:27:12.625Z,5.49
2019-04-28T23:29:42.247Z,5.49
2019-04-28T23:32:11.985Z,5.53
2019-04-28T23:34:41.578Z,5.55
2019-04-28T23:37:11.232Z,5.58
2019-04-28T23:39:40.885Z,5.58
2019-04-28T23:42:12.211Z,5.56
2019-04-28T23:44:41.870Z,5.55
2019-04-28T23:47:11.485Z,5.61
2019-04-28T23:49:41.136Z,5.67
2019-04-28T23:52:15.104Z,5.69
2019-04-28T23:54:46.397Z,5.71
2019-04-28T23:57:16.018Z,5.68
2019-04-28T23:59:45.655Z,5.73
